Aérodrome :
LOGIN :

S'inscrire | Disclaimer

   EN    FR    IT 

 










Légende :    VFR   VFR Marginal   IFR   IFR Intensif   IFR Très Intensif
Visi : 
Plafond : 
>= 8 km
>= 3000ft
5 à 8 km
1000 à 3000 ft
1500m à 5 km
500 à 1000 ft
800 à 1500m
200 à 500 ft
< 800m
< 200 ft
Symboles :   Orages  Brouillard  Fortes neiges  Fortes précipitations  Vent > 20 kt
SIGMETs :   Divers  Orages  Givrage  Turbulence  Onde Orograph.  Cendres Volcan.






- Altitude de l'aérodrome : 137 ft


LIPS - Istrana AFB Treviso

DERNIER METAR :
  • 060555Z 35002KT CAVOK 22/19 Q1015 RMK SKC VIS MIN 9999 WIND THR26 31002KT WIND THR08 34003KT BLU

METARs EXPIRÉS :
  • 060455Z 01004KT CAVOK 21/19 Q1014 RMK SKC VIS MIN 9999 WIND THR26 32004KT WIND THR08 28003KT BLU
  • 060355Z 34004KT CAVOK 25/23 Q1015 RMK SKC VIS MIN 9999 WIND THR26 26002KT WIND THR08 31003KT BLU

TAF TAF LIPS
Valide du 06 à 06h jusqu'au 06 à 15h UTC


060500Z 0606/0615 VRB05KT CAVOK



MET'MAP, la Météo Aéronautique d'un coup d'oeil ! - Copyright ORBIFLY Décembre 2007 - Disclaimer

ORBIFLY MET'MAP TEAM :

Programmation & Développement : Alexandra Zaïnal
Sur une idée originale de : Baudouin d'Aumeries
Assistance à la programmation : Marc-Olivier Méhu
Soutien technique & logistique : Manuel Goepfert

Contact : metmap@orbifly.com




SOURCES & CREDITS :

   NOAA